sensor_id;sensor_type;location;lat;lon;timestamp;temperature;humidity
6672;DHT22;3372;48.690;12.362;2023-11-21T00:02:02;9.90;84.70
6672;DHT22;3372;48.690;12.362;2023-11-21T00:04:29;10.00;83.60
6672;DHT22;3372;48.690;12.362;2023-11-21T00:06:55;9.90;85.60
6672;DHT22;3372;48.690;12.362;2023-11-21T00:09:21;10.00;83.30
6672;DHT22;3372;48.690;12.362;2023-11-21T00:11:47;9.90;85.00
6672;DHT22;3372;48.690;12.362;2023-11-21T00:14:12;9.70;85.30
6672;DHT22;3372;48.690;12.362;2023-11-21T00:16:40;9.80;85.00
6672;DHT22;3372;48.690;12.362;2023-11-21T00:19:06;9.90;84.60
6672;DHT22;3372;48.690;12.362;2023-11-21T00:21:31;9.80;84.10
6672;DHT22;3372;48.690;12.362;2023-11-21T00:23:58;9.90;84.50
6672;DHT22;3372;48.690;12.362;2023-11-21T00:26:24;9.70;84.30
6672;DHT22;3372;48.690;12.362;2023-11-21T00:28:50;9.60;84.80
6672;DHT22;3372;48.690;12.362;2023-11-21T00:31:16;9.80;84.80
6672;DHT22;3372;48.690;12.362;2023-11-21T00:33:41;9.70;85.10
6672;DHT22;3372;48.690;12.362;2023-11-21T00:36:08;9.70;86.30
6672;DHT22;3372;48.690;12.362;2023-11-21T00:38:38;9.40;86.40
6672;DHT22;3372;48.690;12.362;2023-11-21T00:41:06;9.30;86.20
6672;DHT22;3372;48.690;12.362;2023-11-21T00:43:32;9.40;87.70
6672;DHT22;3372;48.690;12.362;2023-11-21T00:45:59;9.40;87.90
6672;DHT22;3372;48.690;12.362;2023-11-21T00:48:24;9.30;88.20
6672;DHT22;3372;48.690;12.362;2023-11-21T00:50:50;9.30;88.30
6672;DHT22;3372;48.690;12.362;2023-11-21T00:53:16;9.50;87.20
6672;DHT22;3372;48.690;12.362;2023-11-21T00:55:42;9.60;86.90
6672;DHT22;3372;48.690;12.362;2023-11-21T00:58:08;9.40;86.30
6672;DHT22;3372;48.690;12.362;2023-11-21T01:00:34;9.40;87.50
6672;DHT22;3372;48.690;12.362;2023-11-21T01:02:59;9.30;86.60
6672;DHT22;3372;48.690;12.362;2023-11-21T01:05:25;9.40;87.50
6672;DHT22;3372;48.690;12.362;2023-11-21T01:07:52;9.10;87.80
6672;DHT22;3372;48.690;12.362;2023-11-21T01:10:17;9.30;87.20
6672;DHT22;3372;48.690;12.362;2023-11-21T01:12:43;9.40;87.30
6672;DHT22;3372;48.690;12.362;2023-11-21T01:15:09;8.90;87.20
6672;DHT22;3372;48.690;12.362;2023-11-21T01:17:37;9.40;87.20
6672;DHT22;3372;48.690;12.362;2023-11-21T01:20:04;9.50;88.10
6672;DHT22;3372;48.690;12.362;2023-11-21T01:22:36;9.40;88.50
6672;DHT22;3372;48.690;12.362;2023-11-21T01:25:02;9.40;89.50
6672;DHT22;3372;48.690;12.362;2023-11-21T01:27:29;9.30;90.40
6672;DHT22;3372;48.690;12.362;2023-11-21T01:29:55;9.40;90.10
6672;DHT22;3372;48.690;12.362;2023-11-21T01:32:21;9.40;90.60
6672;DHT22;3372;48.690;12.362;2023-11-21T01:34:47;9.10;91.80
6672;DHT22;3372;48.690;12.362;2023-11-21T01:37:13;9.30;91.60
6672;DHT22;3372;48.690;12.362;2023-11-21T01:39:39;9.40;92.00
6672;DHT22;3372;48.690;12.362;2023-11-21T01:42:05;9.30;92.20
6672;DHT22;3372;48.690;12.362;2023-11-21T01:44:31;9.40;91.80
6672;DHT22;3372;48.690;12.362;2023-11-21T01:46:57;9.30;92.60
6672;DHT22;3372;48.690;12.362;2023-11-21T01:49:23;9.10;93.50
6672;DHT22;3372;48.690;12.362;2023-11-21T01:51:49;9.20;93.00
6672;DHT22;3372;48.690;12.362;2023-11-21T01:54:17;9.10;93.40
6672;DHT22;3372;48.690;12.362;2023-11-21T01:59:18;9.50;93.70
6672;DHT22;3372;48.690;12.362;2023-11-21T02:01:45;9.20;93.60
6672;DHT22;3372;48.690;12.362;2023-11-21T02:33:33;9.40;93.80
6672;DHT22;3372;48.690;12.362;2023-11-21T02:36:00;9.50;94.70
6672;DHT22;3372;48.690;12.362;2023-11-21T02:38:25;9.50;94.50
6672;DHT22;3372;48.690;12.362;2023-11-21T02:40:51;9.40;94.50
6672;DHT22;3372;48.690;12.362;2023-11-21T02:43:17;9.40;94.90
6672;DHT22;3372;48.690;12.362;2023-11-21T02:45:42;9.60;94.40
6672;DHT22;3372;48.690;12.362;2023-11-21T02:48:08;9.70;94.50
6672;DHT22;3372;48.690;12.362;2023-11-21T02:50:34;9.40;94.10
6672;DHT22;3372;48.690;12.362;2023-11-21T02:53:00;9.40;94.60
6672;DHT22;3372;48.690;12.362;2023-11-21T02:55:27;9.50;94.60
6672;DHT22;3372;48.690;12.362;2023-11-21T02:57:54;9.30;94.90
6672;DHT22;3372;48.690;12.362;2023-11-21T03:00:22;9.60;94.60
6672;DHT22;3372;48.690;12.362;2023-11-21T03:02:49;9.70;95.10
6672;DHT22;3372;48.690;12.362;2023-11-21T03:05:15;9.40;95.30
6672;DHT22;3372;48.690;12.362;2023-11-21T03:07:40;9.50;95.00
6672;DHT22;3372;48.690;12.362;2023-11-21T03:10:07;9.60;95.00
6672;DHT22;3372;48.690;12.362;2023-11-21T03:12:37;9.50;95.20
6672;DHT22;3372;48.690;12.362;2023-11-21T03:15:05;9.50;95.30
6672;DHT22;3372;48.690;12.362;2023-11-21T03:17:31;9.70;95.90
6672;DHT22;3372;48.690;12.362;2023-11-21T03:19:56;9.60;95.10
6672;DHT22;3372;48.690;12.362;2023-11-21T03:22:22;9.40;95.00
6672;DHT22;3372;48.690;12.362;2023-11-21T03:24:48;9.70;95.10
6672;DHT22;3372;48.690;12.362;2023-11-21T03:27:14;9.60;94.90
6672;DHT22;3372;48.690;12.362;2023-11-21T03:29:40;9.70;94.90
6672;DHT22;3372;48.690;12.362;2023-11-21T03:32:05;9.50;94.80
6672;DHT22;3372;48.690;12.362;2023-11-21T03:34:32;9.70;95.10
6672;DHT22;3372;48.690;12.362;2023-11-21T03:36:58;9.60;95.90
6672;DHT22;3372;48.690;12.362;2023-11-21T03:39:24;9.60;96.00
6672;DHT22;3372;48.690;12.362;2023-11-21T03:41:51;9.60;96.10
6672;DHT22;3372;48.690;12.362;2023-11-21T03:44:17;9.60;95.80
6672;DHT22;3372;48.690;12.362;2023-11-21T03:46:43;9.70;96.10
6672;DHT22;3372;48.690;12.362;2023-11-21T03:49:09;9.80;95.50
6672;DHT22;3372;48.690;12.362;2023-11-21T03:51:36;9.70;95.20
6672;DHT22;3372;48.690;12.362;2023-11-21T03:54:02;9.50;95.80
6672;DHT22;3372;48.690;12.362;2023-11-21T03:56:28;9.80;95.50
6672;DHT22;3372;48.690;12.362;2023-11-21T03:58:54;9.60;96.60
6672;DHT22;3372;48.690;12.362;2023-11-21T04:01:21;9.80;96.20
6672;DHT22;3372;48.690;12.362;2023-11-21T04:03:48;9.70;96.20
6672;DHT22;3372;48.690;12.362;2023-11-21T04:06:13;9.80;97.20
6672;DHT22;3372;48.690;12.362;2023-11-21T04:08:39;9.60;96.20
6672;DHT22;3372;48.690;12.362;2023-11-21T04:11:05;9.70;96.30
6672;DHT22;3372;48.690;12.362;2023-11-21T04:13:30;9.80;96.40
6672;DHT22;3372;48.690;12.362;2023-11-21T04:15:56;9.60;96.40
6672;DHT22;3372;48.690;12.362;2023-11-21T04:18:22;9.60;97.30
6672;DHT22;3372;48.690;12.362;2023-11-21T04:20:49;9.40;96.90
6672;DHT22;3372;48.690;12.362;2023-11-21T04:23:15;9.70;97.20
6672;DHT22;3372;48.690;12.362;2023-11-21T04:25:41;9.50;98.10
6672;DHT22;3372;48.690;12.362;2023-11-21T04:28:07;9.50;98.10
6672;DHT22;3372;48.690;12.362;2023-11-21T04:30:32;9.30;97.50
6672;DHT22;3372;48.690;12.362;2023-11-21T04:32:58;9.60;97.50
6672;DHT22;3372;48.690;12.362;2023-11-21T04:35:24;9.40;97.10
6672;DHT22;3372;48.690;12.362;2023-11-21T04:37:49;9.60;97.40
6672;DHT22;3372;48.690;12.362;2023-11-21T04:40:16;9.70;98.10
6672;DHT22;3372;48.690;12.362;2023-11-21T04:42:42;9.50;98.40
6672;DHT22;3372;48.690;12.362;2023-11-21T04:45:08;9.60;98.30
6672;DHT22;3372;48.690;12.362;2023-11-21T04:47:35;9.50;98.40
6672;DHT22;3372;48.690;12.362;2023-11-21T04:50:01;9.50;98.50
6672;DHT22;3372;48.690;12.362;2023-11-21T04:52:27;9.40;98.40
6672;DHT22;3372;48.690;12.362;2023-11-21T04:54:53;9.60;98.00
6672;DHT22;3372;48.690;12.362;2023-11-21T04:57:20;9.50;98.10
6672;DHT22;3372;48.690;12.362;2023-11-21T04:59:46;9.70;98.00
6672;DHT22;3372;48.690;12.362;2023-11-21T05:02:11;9.60;98.00
6672;DHT22;3372;48.690;12.362;2023-11-21T05:04:37;9.80;97.80
6672;DHT22;3372;48.690;12.362;2023-11-21T05:07:03;9.30;98.20
6672;DHT22;3372;48.690;12.362;2023-11-21T05:09:29;9.50;98.30
6672;DHT22;3372;48.690;12.362;2023-11-21T05:11:57;9.60;98.10
6672;DHT22;3372;48.690;12.362;2023-11-21T05:14:23;9.50;98.10
6672;DHT22;3372;48.690;12.362;2023-11-21T05:16:48;9.50;98.90
6672;DHT22;3372;48.690;12.362;2023-11-21T05:19:17;9.50;99.20
6672;DHT22;3372;48.690;12.362;2023-11-21T05:21:43;9.40;98.70
6672;DHT22;3372;48.690;12.362;2023-11-21T05:24:08;9.60;99.30
6672;DHT22;3372;48.690;12.362;2023-11-21T05:26:35;9.60;99.70
6672;DHT22;3372;48.690;12.362;2023-11-21T05:29:00;9.80;99.80
6672;DHT22;3372;48.690;12.362;2023-11-21T05:31:26;9.50;99.20
6672;DHT22;3372;48.690;12.362;2023-11-21T05:33:52;9.50;99.60
6672;DHT22;3372;48.690;12.362;2023-11-21T05:36:18;9.40;99.60
6672;DHT22;3372;48.690;12.362;2023-11-21T05:38:44;9.50;99.50
6672;DHT22;3372;48.690;12.362;2023-11-21T05:41:09;9.40;99.90
6672;DHT22;3372;48.690;12.362;2023-11-21T05:43:39;9.40;99.90
6672;DHT22;3372;48.690;12.362;2023-11-21T05:46:05;9.60;99.90
6672;DHT22;3372;48.690;12.362;2023-11-21T05:48:32;9.60;99.90
6672;DHT22;3372;48.690;12.362;2023-11-21T05:50:58;9.50;99.90
6672;DHT22;3372;48.690;12.362;2023-11-21T05:53:24;9.60;99.90
6672;DHT22;3372;48.690;12.362;2023-11-21T05:55:50;9.40;99.90
6672;DHT22;3372;48.690;12.362;2023-11-21T05:58:15;9.50;99.90
6672;DHT22;3372;48.690;12.362;2023-11-21T06:00:41;9.70;99.90
6672;DHT22;3372;48.690;12.362;2023-11-21T06:03:07;9.50;99.90
6672;DHT22;3372;48.690;12.362;2023-11-21T06:05:33;9.40;99.90
6672;DHT22;3372;48.690;12.362;2023-11-21T06:07:59;9.40;99.90
6672;DHT22;3372;48.690;12.362;2023-11-21T06:10:26;9.30;99.90
6672;DHT22;3372;48.690;12.362;2023-11-21T06:12:52;9.30;99.90
6672;DHT22;3372;48.690;12.362;2023-11-21T06:15:18;9.60;99.90
6672;DHT22;3372;48.690;12.362;2023-11-21T06:17:48;9.70;99.90
6672;DHT22;3372;48.690;12.362;2023-11-21T06:20:20;9.60;99.90
6672;DHT22;3372;48.690;12.362;2023-11-21T06:22:48;9.60;99.90
6672;DHT22;3372;48.690;12.362;2023-11-21T06:25:14;9.80;99.90
6672;DHT22;3372;48.690;12.362;2023-11-21T06:27:42;9.80;99.90
6672;DHT22;3372;48.690;12.362;2023-11-21T06:30:10;9.70;99.90
6672;DHT22;3372;48.690;12.362;2023-11-21T06:32:37;9.50;99.90
6672;DHT22;3372;48.690;12.362;2023-11-21T06:35:03;9.70;99.90
6672;DHT22;3372;48.690;12.362;2023-11-21T06:37:30;9.50;99.90
6672;DHT22;3372;48.690;12.362;2023-11-21T06:39:56;9.40;99.90
6672;DHT22;3372;48.690;12.362;2023-11-21T06:42:27;9.60;99.90
6672;DHT22;3372;48.690;12.362;2023-11-21T06:44:53;9.70;99.90
6672;DHT22;3372;48.690;12.362;2023-11-21T06:47:19;9.70;99.90
6672;DHT22;3372;48.690;12.362;2023-11-21T06:49:50;9.80;99.90
6672;DHT22;3372;48.690;12.362;2023-11-21T06:52:17;9.80;99.90
6672;DHT22;3372;48.690;12.362;2023-11-21T06:54:43;9.90;99.90
6672;DHT22;3372;48.690;12.362;2023-11-21T06:57:09;9.80;99.90
6672;DHT22;3372;48.690;12.362;2023-11-21T06:59:36;9.60;99.90
6672;DHT22;3372;48.690;12.362;2023-11-21T07:02:02;9.70;99.90
6672;DHT22;3372;48.690;12.362;2023-11-21T07:04:27;9.70;99.90
6672;DHT22;3372;48.690;12.362;2023-11-21T07:06:54;9.50;99.90
6672;DHT22;3372;48.690;12.362;2023-11-21T07:09:20;9.50;99.90
6672;DHT22;3372;48.690;12.362;2023-11-21T07:11:49;9.60;99.90
6672;DHT22;3372;48.690;12.362;2023-11-21T07:14:15;9.70;99.90
6672;DHT22;3372;48.690;12.362;2023-11-21T07:16:42;9.50;99.90
6672;DHT22;3372;48.690;12.362;2023-11-21T07:19:08;9.60;99.90
6672;DHT22;3372;48.690;12.362;2023-11-21T07:21:34;9.70;99.90
6672;DHT22;3372;48.690;12.362;2023-11-21T07:24:00;9.60;99.90
6672;DHT22;3372;48.690;12.362;2023-11-21T07:26:27;9.60;99.90
6672;DHT22;3372;48.690;12.362;2023-11-21T07:28:53;9.70;99.90
6672;DHT22;3372;48.690;12.362;2023-11-21T07:31:19;9.70;99.90
6672;DHT22;3372;48.690;12.362;2023-11-21T07:33:46;9.80;99.90
6672;DHT22;3372;48.690;12.362;2023-11-21T07:36:14;9.70;99.90
6672;DHT22;3372;48.690;12.362;2023-11-21T07:38:41;9.70;99.90
6672;DHT22;3372;48.690;12.362;2023-11-21T07:41:07;9.70;99.90
6672;DHT22;3372;48.690;12.362;2023-11-21T07:43:36;9.80;99.90
6672;DHT22;3372;48.690;12.362;2023-11-21T07:46:05;9.80;99.90
6672;DHT22;3372;48.690;12.362;2023-11-21T07:48:31;9.80;99.90
6672;DHT22;3372;48.690;12.362;2023-11-21T07:50:57;9.80;99.90
6672;DHT22;3372;48.690;12.362;2023-11-21T07:53:26;9.80;99.90
6672;DHT22;3372;48.690;12.362;2023-11-21T07:55:54;9.80;99.90
6672;DHT22;3372;48.690;12.362;2023-11-21T07:58:20;9.80;99.90
6672;DHT22;3372;48.690;12.362;2023-11-21T08:00:45;9.80;99.90
6672;DHT22;3372;48.690;12.362;2023-11-21T08:03:13;9.90;99.90
6672;DHT22;3372;48.690;12.362;2023-11-21T08:05:39;9.90;99.90
6672;DHT22;3372;48.690;12.362;2023-11-21T08:08:05;10.00;99.90
6672;DHT22;3372;48.690;12.362;2023-11-21T08:10:30;9.90;99.90
6672;DHT22;3372;48.690;12.362;2023-11-21T08:12:56;10.00;99.90
6672;DHT22;3372;48.690;12.362;2023-11-21T08:15:22;10.00;99.90
6672;DHT22;3372;48.690;12.362;2023-11-21T08:17:48;10.00;99.90
6672;DHT22;3372;48.690;12.362;2023-11-21T08:20:14;10.00;99.90
6672;DHT22;3372;48.690;12.362;2023-11-21T08:22:43;10.00;99.90
6672;DHT22;3372;48.690;12.362;2023-11-21T08:25:09;10.10;99.90
6672;DHT22;3372;48.690;12.362;2023-11-21T08:27:34;10.20;99.90
6672;DHT22;3372;48.690;12.362;2023-11-21T08:30:02;10.30;99.90
6672;DHT22;3372;48.690;12.362;2023-11-21T08:32:28;10.30;99.90
6672;DHT22;3372;48.690;12.362;2023-11-21T08:34:55;10.30;99.90
6672;DHT22;3372;48.690;12.362;2023-11-21T08:37:21;10.30;99.90
6672;DHT22;3372;48.690;12.362;2023-11-21T08:39:47;10.30;99.90
6672;DHT22;3372;48.690;12.362;2023-11-21T08:42:13;10.30;99.90
6672;DHT22;3372;48.690;12.362;2023-11-21T08:44:40;10.30;99.90
6672;DHT22;3372;48.690;12.362;2023-11-21T08:47:06;10.30;99.90
6672;DHT22;3372;48.690;12.362;2023-11-21T08:49:31;10.40;99.90
6672;DHT22;3372;48.690;12.362;2023-11-21T08:51:58;10.40;99.90
6672;DHT22;3372;48.690;12.362;2023-11-21T08:54:25;10.30;99.90
6672;DHT22;3372;48.690;12.362;2023-11-21T08:56:54;10.40;99.90
6672;DHT22;3372;48.690;12.362;2023-11-21T08:59:20;10.40;99.90
6672;DHT22;3372;48.690;12.362;2023-11-21T09:01:47;10.20;99.90
6672;DHT22;3372;48.690;12.362;2023-11-21T09:04:12;10.30;99.90
6672;DHT22;3372;48.690;12.362;2023-11-21T09:06:39;10.00;99.90
6672;DHT22;3372;48.690;12.362;2023-11-21T09:09:05;10.10;99.90
6672;DHT22;3372;48.690;12.362;2023-11-21T09:11:32;10.20;99.90
6672;DHT22;3372;48.690;12.362;2023-11-21T09:13:59;10.20;99.90
6672;DHT22;3372;48.690;12.362;2023-11-21T09:16:26;10.20;99.90
6672;DHT22;3372;48.690;12.362;2023-11-21T09:18:51;10.20;99.90
6672;DHT22;3372;48.690;12.362;2023-11-21T09:21:17;10.20;99.90
6672;DHT22;3372;48.690;12.362;2023-11-21T09:23:44;10.30;99.90
6672;DHT22;3372;48.690;12.362;2023-11-21T09:26:10;10.40;99.90
6672;DHT22;3372;48.690;12.362;2023-11-21T09:28:35;10.30;99.90
6672;DHT22;3372;48.690;12.362;2023-11-21T09:31:06;10.30;99.90
6672;DHT22;3372;48.690;12.362;2023-11-21T09:33:34;10.40;99.90
6672;DHT22;3372;48.690;12.362;2023-11-21T09:36:00;10.40;99.90
6672;DHT22;3372;48.690;12.362;2023-11-21T09:38:26;10.40;99.90
6672;DHT22;3372;48.690;12.362;2023-11-21T09:40:54;10.40;99.90
6672;DHT22;3372;48.690;12.362;2023-11-21T09:43:20;10.40;99.90
6672;DHT22;3372;48.690;12.362;2023-11-21T09:45:52;10.50;99.90
6672;DHT22;3372;48.690;12.362;2023-11-21T09:48:20;10.50;99.90
6672;DHT22;3372;48.690;12.362;2023-11-21T09:50:47;10.60;99.90
6672;DHT22;3372;48.690;12.362;2023-11-21T09:53:17;10.60;99.90
6672;DHT22;3372;48.690;12.362;2023-11-21T09:55:45;10.60;99.90
6672;DHT22;3372;48.690;12.362;2023-11-21T09:58:13;10.60;99.90
6672;DHT22;3372;48.690;12.362;2023-11-21T10:00:42;10.70;99.90
6672;DHT22;3372;48.690;12.362;2023-11-21T10:03:09;10.70;99.90
6672;DHT22;3372;48.690;12.362;2023-11-21T10:05:36;10.70;99.90
6672;DHT22;3372;48.690;12.362;2023-11-21T10:08:07;10.70;99.90
6672;DHT22;3372;48.690;12.362;2023-11-21T10:10:33;10.70;99.90
6672;DHT22;3372;48.690;12.362;2023-11-21T10:13:02;10.70;99.90
6672;DHT22;3372;48.690;12.362;2023-11-21T10:15:33;10.70;99.90
6672;DHT22;3372;48.690;12.362;2023-11-21T10:18:01;10.80;99.90
6672;DHT22;3372;48.690;12.362;2023-11-21T10:20:29;10.90;99.90
6672;DHT22;3372;48.690;12.362;2023-11-21T10:22:55;10.80;99.90
6672;DHT22;3372;48.690;12.362;2023-11-21T10:25:23;10.90;99.90
6672;DHT22;3372;48.690;12.362;2023-11-21T10:27:49;10.90;99.90
6672;DHT22;3372;48.690;12.362;2023-11-21T10:30:18;11.00;99.90
6672;DHT22;3372;48.690;12.362;2023-11-21T10:32:44;11.00;99.90
6672;DHT22;3372;48.690;12.362;2023-11-21T10:35:10;11.10;99.90
6672;DHT22;3372;48.690;12.362;2023-11-21T10:37:39;11.10;99.90
6672;DHT22;3372;48.690;12.362;2023-11-21T10:40:09;11.20;99.90
6672;DHT22;3372;48.690;12.362;2023-11-21T10:42:38;11.20;99.90
6672;DHT22;3372;48.690;12.362;2023-11-21T10:45:05;11.30;99.90
6672;DHT22;3372;48.690;12.362;2023-11-21T10:47:38;11.20;99.90
6672;DHT22;3372;48.690;12.362;2023-11-21T10:50:04;11.20;99.90
6672;DHT22;3372;48.690;12.362;2023-11-21T10:52:30;11.20;99.90
6672;DHT22;3372;48.690;12.362;2023-11-21T10:54:55;11.30;99.90
6672;DHT22;3372;48.690;12.362;2023-11-21T10:57:24;11.30;99.90
6672;DHT22;3372;48.690;12.362;2023-11-21T10:59:54;11.30;99.90
6672;DHT22;3372;48.690;12.362;2023-11-21T11:02:26;11.30;99.90
6672;DHT22;3372;48.690;12.362;2023-11-21T11:04:57;11.30;99.90
6672;DHT22;3372;48.690;12.362;2023-11-21T11:07:26;11.30;99.90
6672;DHT22;3372;48.690;12.362;2023-11-21T11:09:56;11.30;99.90
6672;DHT22;3372;48.690;12.362;2023-11-21T11:12:23;11.20;99.90
6672;DHT22;3372;48.690;12.362;2023-11-21T11:14:49;11.20;99.90
6672;DHT22;3372;48.690;12.362;2023-11-21T11:17:16;11.30;99.90
6672;DHT22;3372;48.690;12.362;2023-11-21T11:19:42;11.20;99.90
6672;DHT22;3372;48.690;12.362;2023-11-21T11:22:48;11.20;99.90
6672;DHT22;3372;48.690;12.362;2023-11-21T11:38:16;10.80;99.90
6672;DHT22;3372;48.690;12.362;2023-11-21T11:40:46;10.90;99.90
6672;DHT22;3372;48.690;12.362;2023-11-21T11:43:12;11.00;99.90
6672;DHT22;3372;48.690;12.362;2023-11-21T11:45:38;10.90;99.90
6672;DHT22;3372;48.690;12.362;2023-11-21T11:48:08;10.90;99.90
6672;DHT22;3372;48.690;12.362;2023-11-21T11:50:34;10.90;99.90
6672;DHT22;3372;48.690;12.362;2023-11-21T11:53:26;11.00;99.90
6672;DHT22;3372;48.690;12.362;2023-11-21T11:56:23;10.90;99.90
6672;DHT22;3372;48.690;12.362;2023-11-21T11:58:54;11.00;99.90
6672;DHT22;3372;48.690;12.362;2023-11-21T12:01:21;11.10;99.90
6672;DHT22;3372;48.690;12.362;2023-11-21T12:06:35;11.00;99.90
6672;DHT22;3372;48.690;12.362;2023-11-21T12:09:02;10.90;99.90
6672;DHT22;3372;48.690;12.362;2023-11-21T12:11:33;10.90;99.90
6672;DHT22;3372;48.690;12.362;2023-11-21T12:14:01;10.90;99.90
6672;DHT22;3372;48.690;12.362;2023-11-21T12:16:27;10.80;99.90
6672;DHT22;3372;48.690;12.362;2023-11-21T12:18:53;10.90;99.90
6672;DHT22;3372;48.690;12.362;2023-11-21T12:21:21;10.90;99.90
6672;DHT22;3372;48.690;12.362;2023-11-21T12:23:47;10.80;99.90
6672;DHT22;3372;48.690;12.362;2023-11-21T12:26:13;10.90;99.90
6672;DHT22;3372;48.690;12.362;2023-11-21T12:28:39;10.90;99.90
6672;DHT22;3372;48.690;12.362;2023-11-21T12:31:06;10.90;99.90
6672;DHT22;3372;48.690;12.362;2023-11-21T12:33:33;10.70;99.90
6672;DHT22;3372;48.690;12.362;2023-11-21T12:35:58;10.80;99.90
6672;DHT22;3372;48.690;12.362;2023-11-21T12:38:24;10.70;99.90
6672;DHT22;3372;48.690;12.362;2023-11-21T12:40:50;10.70;99.90
6672;DHT22;3372;48.690;12.362;2023-11-21T12:43:17;10.70;99.90
6672;DHT22;3372;48.690;12.362;2023-11-21T12:45:43;10.80;99.90
6672;DHT22;3372;48.690;12.362;2023-11-21T12:48:09;10.90;99.90
6672;DHT22;3372;48.690;12.362;2023-11-21T12:50:37;10.90;99.90
6672;DHT22;3372;48.690;12.362;2023-11-21T12:53:11;10.80;99.90
6672;DHT22;3372;48.690;12.362;2023-11-21T12:55:43;10.80;99.90
6672;DHT22;3372;48.690;12.362;2023-11-21T12:58:09;10.80;99.90
6672;DHT22;3372;48.690;12.362;2023-11-21T13:00:43;10.90;99.90
6672;DHT22;3372;48.690;12.362;2023-11-21T13:03:11;10.90;99.90
6672;DHT22;3372;48.690;12.362;2023-11-21T13:05:39;10.90;99.90
6672;DHT22;3372;48.690;12.362;2023-11-21T13:08:09;10.70;99.90
6672;DHT22;3372;48.690;12.362;2023-11-21T13:10:37;10.80;99.90
6672;DHT22;3372;48.690;12.362;2023-11-21T13:13:06;10.80;99.90
6672;DHT22;3372;48.690;12.362;2023-11-21T13:15:34;10.80;99.90
6672;DHT22;3372;48.690;12.362;2023-11-21T13:18:02;10.80;99.90
6672;DHT22;3372;48.690;12.362;2023-11-21T13:20:28;10.80;99.90
6672;DHT22;3372;48.690;12.362;2023-11-21T13:22:55;10.70;99.90
6672;DHT22;3372;48.690;12.362;2023-11-21T13:25:28;10.80;99.90
6672;DHT22;3372;48.690;12.362;2023-11-21T13:28:00;10.80;99.90
6672;DHT22;3372;48.690;12.362;2023-11-21T13:30:26;10.70;99.90
6672;DHT22;3372;48.690;12.362;2023-11-21T13:32:53;10.80;99.90
6672;DHT22;3372;48.690;12.362;2023-11-21T13:35:19;10.90;99.90
6672;DHT22;3372;48.690;12.362;2023-11-21T13:37:56;10.90;99.90
6672;DHT22;3372;48.690;12.362;2023-11-21T13:40:26;10.90;99.90
6672;DHT22;3372;48.690;12.362;2023-11-21T13:42:53;10.80;99.90
6672;DHT22;3372;48.690;12.362;2023-11-21T13:45:21;10.90;99.90
6672;DHT22;3372;48.690;12.362;2023-11-21T13:47:51;10.90;99.90
6672;DHT22;3372;48.690;12.362;2023-11-21T13:50:18;10.90;99.90
6672;DHT22;3372;48.690;12.362;2023-11-21T13:52:49;10.80;99.90
6672;DHT22;3372;48.690;12.362;2023-11-21T13:55:16;10.70;99.90
6672;DHT22;3372;48.690;12.362;2023-11-21T13:57:42;10.70;99.90
6672;DHT22;3372;48.690;12.362;2023-11-21T14:00:11;10.70;99.90
6672;DHT22;3372;48.690;12.362;2023-11-21T14:02:57;10.70;99.90
6672;DHT22;3372;48.690;12.362;2023-11-21T14:05:27;10.50;99.90
6672;DHT22;3372;48.690;12.362;2023-11-21T14:07:55;10.50;99.90
6672;DHT22;3372;48.690;12.362;2023-11-21T14:10:25;10.60;99.90
6672;DHT22;3372;48.690;12.362;2023-11-21T14:12:51;10.70;99.90
6672;DHT22;3372;48.690;12.362;2023-11-21T14:15:17;10.70;99.90
6672;DHT22;3372;48.690;12.362;2023-11-21T14:17:44;10.80;99.90
6672;DHT22;3372;48.690;12.362;2023-11-21T14:20:10;10.80;99.90
6672;DHT22;3372;48.690;12.362;2023-11-21T14:22:43;10.90;99.90
6672;DHT22;3372;48.690;12.362;2023-11-21T14:25:09;10.80;99.90
6672;DHT22;3372;48.690;12.362;2023-11-21T14:27:36;10.90;99.90
6672;DHT22;3372;48.690;12.362;2023-11-21T14:30:02;10.90;99.90
6672;DHT22;3372;48.690;12.362;2023-11-21T14:32:28;10.90;99.90
6672;DHT22;3372;48.690;12.362;2023-11-21T14:34:54;10.90;99.90
6672;DHT22;3372;48.690;12.362;2023-11-21T14:37:19;10.90;99.90
6672;DHT22;3372;48.690;12.362;2023-11-21T14:39:45;11.00;99.90
6672;DHT22;3372;48.690;12.362;2023-11-21T14:42:14;10.90;99.90
6672;DHT22;3372;48.690;12.362;2023-11-21T14:44:49;10.90;99.90
6672;DHT22;3372;48.690;12.362;2023-11-21T14:47:15;10.90;99.90
6672;DHT22;3372;48.690;12.362;2023-11-21T14:49:42;10.80;99.90
6672;DHT22;3372;48.690;12.362;2023-11-21T14:52:25;10.60;99.90
6672;DHT22;3372;48.690;12.362;2023-11-21T14:55:00;10.60;99.90
6672;DHT22;3372;48.690;12.362;2023-11-21T14:57:47;10.60;99.90
6672;DHT22;3372;48.690;12.362;2023-11-21T15:00:17;10.60;99.90
6672;DHT22;3372;48.690;12.362;2023-11-21T15:03:03;10.70;99.90
6672;DHT22;3372;48.690;12.362;2023-11-21T15:05:29;10.70;99.90
6672;DHT22;3372;48.690;12.362;2023-11-21T15:07:56;10.60;99.90
6672;DHT22;3372;48.690;12.362;2023-11-21T15:10:33;10.50;99.90
6672;DHT22;3372;48.690;12.362;2023-11-21T15:13:14;10.50;99.90
6672;DHT22;3372;48.690;12.362;2023-11-21T15:15:41;10.60;99.90
6672;DHT22;3372;48.690;12.362;2023-11-21T15:18:07;10.60;99.90
6672;DHT22;3372;48.690;12.362;2023-11-21T15:20:33;10.60;99.90
6672;DHT22;3372;48.690;12.362;2023-11-21T15:22:58;10.60;99.90
6672;DHT22;3372;48.690;12.362;2023-11-21T15:25:25;10.70;99.90
6672;DHT22;3372;48.690;12.362;2023-11-21T15:27:51;10.70;99.90
6672;DHT22;3372;48.690;12.362;2023-11-21T15:30:16;10.60;99.90
6672;DHT22;3372;48.690;12.362;2023-11-21T15:32:48;10.50;99.90
6672;DHT22;3372;48.690;12.362;2023-11-21T15:35:14;10.50;99.90
6672;DHT22;3372;48.690;12.362;2023-11-21T15:37:40;10.50;99.90
6672;DHT22;3372;48.690;12.362;2023-11-21T15:40:06;10.50;99.90
6672;DHT22;3372;48.690;12.362;2023-11-21T15:42:34;10.50;99.90
6672;DHT22;3372;48.690;12.362;2023-11-21T15:45:01;10.50;99.90
6672;DHT22;3372;48.690;12.362;2023-11-21T15:47:27;10.50;99.90
6672;DHT22;3372;48.690;12.362;2023-11-21T15:49:53;10.50;99.90
6672;DHT22;3372;48.690;12.362;2023-11-21T15:52:18;10.50;99.90
6672;DHT22;3372;48.690;12.362;2023-11-21T15:54:44;10.50;99.90
6672;DHT22;3372;48.690;12.362;2023-11-21T15:57:11;10.40;99.90
6672;DHT22;3372;48.690;12.362;2023-11-21T15:59:40;10.50;99.90
6672;DHT22;3372;48.690;12.362;2023-11-21T16:02:07;10.40;99.90
6672;DHT22;3372;48.690;12.362;2023-11-21T16:04:34;10.50;99.90
6672;DHT22;3372;48.690;12.362;2023-11-21T16:07:02;10.50;99.90
6672;DHT22;3372;48.690;12.362;2023-11-21T16:09:27;10.50;99.90
6672;DHT22;3372;48.690;12.362;2023-11-21T16:12:03;10.40;99.90
6672;DHT22;3372;48.690;12.362;2023-11-21T16:14:32;10.40;99.90
6672;DHT22;3372;48.690;12.362;2023-11-21T16:17:02;10.40;99.90
6672;DHT22;3372;48.690;12.362;2023-11-21T16:19:28;10.40;99.90
6672;DHT22;3372;48.690;12.362;2023-11-21T16:21:54;10.40;99.90
6672;DHT22;3372;48.690;12.362;2023-11-21T16:24:20;10.40;99.90
6672;DHT22;3372;48.690;12.362;2023-11-21T16:26:46;10.40;99.90
6672;DHT22;3372;48.690;12.362;2023-11-21T16:29:12;10.40;99.90
6672;DHT22;3372;48.690;12.362;2023-11-21T16:31:39;10.30;99.90
6672;DHT22;3372;48.690;12.362;2023-11-21T16:34:12;10.30;99.90
6672;DHT22;3372;48.690;12.362;2023-11-21T16:36:41;10.30;99.90
6672;DHT22;3372;48.690;12.362;2023-11-21T16:39:08;10.40;99.90
6672;DHT22;3372;48.690;12.362;2023-11-21T16:41:35;10.30;99.90